createdAt,value
2022-10-07T00:01:41.991Z,9.10
2022-10-07T00:04:10.944Z,8.57
2022-10-07T00:06:39.583Z,9.13
2022-10-07T00:09:08.286Z,9.37
2022-10-07T00:11:37.294Z,9.07
2022-10-07T00:14:07.918Z,8.67
2022-10-07T00:16:41.288Z,8.50
2022-10-07T00:19:13.009Z,8.60
2022-10-07T00:21:42.025Z,8.67
2022-10-07T00:24:11.622Z,8.90
2022-10-07T00:26:40.164Z,9.00
2022-10-07T00:29:09.753Z,9.20
2022-10-07T00:31:41.722Z,8.47
2022-10-07T00:34:12.829Z,8.50
2022-10-07T00:36:43.484Z,8.53
2022-10-07T00:39:15.366Z,8.70
2022-10-07T00:41:46.079Z,9.00
2022-10-07T00:44:40.049Z,9.17
2022-10-07T00:47:14.900Z,9.47
2022-10-07T00:49:46.820Z,7.83
2022-10-07T00:52:17.530Z,8.50
2022-10-07T00:54:46.258Z,9.40
2022-10-07T00:57:15.181Z,8.57
2022-10-07T00:59:43.753Z,9.17
2022-10-07T01:02:13.780Z,8.27
2022-10-07T01:04:43.915Z,8.63
2022-10-07T01:07:21.792Z,8.33
2022-10-07T01:09:53.185Z,9.43
2022-10-07T01:12:30.021Z,9.13
2022-10-07T01:15:06.950Z,9.33
2022-10-07T01:17:47.530Z,8.27
2022-10-07T01:20:36.052Z,8.70
2022-10-07T01:23:19.649Z,9.70
2022-10-07T01:26:05.222Z,9.50
2022-10-07T01:28:40.795Z,8.60
2022-10-07T01:31:13.427Z,10.10
2022-10-07T01:33:44.496Z,9.53
2022-10-07T01:36:17.408Z,9.13
2022-10-07T01:38:53.227Z,8.90
2022-10-07T01:41:23.352Z,9.03
2022-10-07T01:43:55.405Z,9.30
2022-10-07T01:46:26.966Z,9.10
2022-10-07T01:48:55.727Z,10.67
2022-10-07T01:51:29.476Z,9.10
2022-10-07T01:54:02.967Z,10.80
2022-10-07T01:56:46.837Z,10.07
2022-10-07T01:59:40.831Z,9.17
2022-10-07T02:02:20.427Z,9.83
2022-10-07T02:04:59.313Z,8.83
2022-10-07T02:07:37.967Z,9.93
2022-10-07T02:10:17.288Z,9.80
2022-10-07T02:12:52.262Z,9.80
2022-10-07T02:15:26.161Z,9.47
2022-10-07T02:17:58.214Z,12.20
2022-10-07T02:20:32.017Z,10.47
2022-10-07T02:23:03.266Z,10.53
2022-10-07T02:25:37.079Z,10.30
2022-10-07T02:28:08.066Z,10.07
2022-10-07T02:30:39.255Z,9.50
2022-10-07T02:33:09.919Z,10.53
2022-10-07T02:35:43.477Z,9.90
2022-10-07T02:38:14.561Z,9.20
2022-10-07T02:40:50.606Z,9.37
2022-10-07T02:43:29.081Z,10.87
2022-10-07T02:46:03.363Z,10.30
2022-10-07T02:48:39.241Z,10.67
2022-10-07T02:51:12.069Z,10.53
2022-10-07T02:53:42.181Z,9.33
2022-10-07T02:56:11.146Z,9.27
2022-10-07T02:58:44.929Z,10.80
2022-10-07T03:01:21.306Z,11.00
2022-10-07T03:03:50.036Z,9.93
2022-10-07T03:06:20.433Z,10.57
2022-10-07T03:08:49.230Z,9.07
2022-10-07T03:11:17.932Z,9.70
2022-10-07T03:13:46.503Z,9.43
2022-10-07T03:16:16.640Z,10.20
2022-10-07T03:18:45.552Z,10.23
2022-10-07T03:21:14.208Z,10.73
2022-10-07T03:23:43.362Z,10.00
2022-10-07T03:26:11.919Z,11.10
2022-10-07T03:28:40.636Z,10.30
2022-10-07T03:31:11.831Z,10.73
2022-10-07T03:33:42.091Z,10.40
2022-10-07T03:36:11.418Z,9.67
2022-10-07T03:38:39.976Z,8.80
2022-10-07T03:41:08.555Z,9.40
2022-10-07T03:43:37.740Z,9.63
2022-10-07T03:46:07.108Z,11.30
2022-10-07T03:48:35.860Z,9.30
2022-10-07T03:51:06.207Z,9.60
2022-10-07T03:53:34.866Z,9.30
2022-10-07T03:56:03.531Z,10.33
2022-10-07T03:58:32.237Z,8.90
2022-10-07T04:01:09.338Z,11.33
2022-10-07T04:03:37.903Z,10.30
2022-10-07T04:06:08.368Z,9.87
2022-10-07T04:08:37.315Z,8.83
2022-10-07T04:11:06.204Z,11.43
2022-10-07T04:13:35.210Z,10.00
2022-10-07T04:16:07.457Z,11.07
2022-10-07T04:18:36.255Z,8.23
2022-10-07T04:21:05.239Z,9.50
2022-10-07T04:23:35.465Z,10.37
2022-10-07T04:26:09.274Z,8.50
2022-10-07T04:28:38.183Z,9.50
2022-10-07T04:31:08.819Z,10.27
2022-10-07T04:33:44.422Z,9.43
2022-10-07T04:36:13.671Z,11.03
2022-10-07T04:38:45.284Z,9.07
2022-10-07T04:41:13.837Z,10.63
2022-10-07T04:43:42.637Z,8.43
2022-10-07T04:46:13.639Z,9.93
2022-10-07T04:48:45.767Z,8.97
2022-10-07T04:51:15.995Z,9.50
2022-10-07T04:53:45.985Z,8.87
2022-10-07T04:56:14.535Z,10.07
2022-10-07T04:58:43.237Z,9.60
2022-10-07T05:01:12.852Z,11.53
2022-10-07T05:03:44.072Z,9.00
2022-10-07T05:06:13.180Z,8.50
2022-10-07T05:08:45.340Z,11.03
2022-10-07T05:11:13.925Z,9.50
2022-10-07T05:13:42.816Z,7.77
2022-10-07T05:16:12.243Z,9.67
2022-10-07T05:18:41.075Z,8.90
2022-10-07T05:21:10.702Z,8.43
2022-10-07T05:23:39.656Z,9.23
2022-10-07T05:26:11.190Z,9.40
2022-10-07T05:28:40.906Z,8.67
2022-10-07T05:31:12.064Z,9.47
2022-10-07T05:33:41.527Z,7.83
2022-10-07T05:36:11.896Z,10.57
2022-10-07T05:38:43.451Z,9.37
2022-10-07T05:41:14.098Z,10.73
2022-10-07T05:43:43.351Z,9.37
2022-10-07T05:46:13.552Z,9.80
2022-10-07T05:48:46.382Z,8.47
2022-10-07T05:51:15.686Z,10.13
2022-10-07T05:53:44.875Z,9.30
2022-10-07T05:56:20.216Z,8.97
2022-10-07T05:58:52.673Z,9.30
2022-10-07T06:01:23.977Z,10.03
2022-10-07T06:03:54.470Z,9.37
2022-10-07T06:06:23.430Z,10.23
2022-10-07T06:08:53.070Z,9.33
2022-10-07T06:11:40.437Z,11.33
2022-10-07T06:14:09.079Z,8.97
2022-10-07T06:16:37.730Z,10.20
2022-10-07T06:19:22.534Z,10.40
2022-10-07T06:21:52.038Z,10.07
2022-10-07T06:24:21.421Z,11.90
2022-10-07T06:26:51.338Z,9.60
2022-10-07T06:29:19.999Z,9.77
2022-10-07T06:31:48.710Z,9.27
2022-10-07T06:34:18.183Z,11.37
2022-10-07T06:36:46.700Z,9.47
2022-10-07T06:39:18.005Z,9.73
2022-10-07T06:41:53.035Z,9.00
2022-10-07T06:44:21.728Z,10.03
2022-10-07T06:46:50.443Z,9.77
2022-10-07T06:49:19.059Z,11.83
2022-10-07T06:51:50.133Z,10.73
2022-10-07T06:54:18.744Z,10.47
2022-10-07T06:56:49.048Z,9.17
2022-10-07T06:59:23.818Z,10.53
2022-10-07T07:01:52.557Z,9.73
2022-10-07T07:04:21.264Z,10.97
2022-10-07T07:06:49.923Z,10.80
2022-10-07T07:09:18.687Z,10.20
2022-10-07T07:11:47.355Z,9.17
2022-10-07T07:14:16.018Z,10.73
2022-10-07T07:16:46.414Z,11.40
2022-10-07T07:19:16.345Z,10.73
2022-10-07T07:21:48.956Z,12.13
2022-10-07T07:24:20.945Z,10.93
2022-10-07T07:26:49.733Z,10.87
2022-10-07T07:29:18.570Z,11.17
2022-10-07T07:31:51.074Z,10.57
2022-10-07T07:34:19.942Z,10.67
2022-10-07T07:36:51.340Z,10.87
2022-10-07T07:39:20.790Z,11.53
2022-10-07T07:41:50.975Z,10.23
2022-10-07T07:44:20.606Z,11.53
2022-10-07T07:46:52.106Z,11.07
2022-10-07T07:49:22.148Z,11.83
2022-10-07T07:51:51.249Z,11.27
2022-10-07T07:54:19.778Z,12.40
2022-10-07T07:56:48.387Z,10.73
2022-10-07T07:59:17.208Z,12.73
2022-10-07T08:01:46.380Z,12.30
2022-10-07T08:04:16.685Z,11.93
2022-10-07T08:06:45.577Z,11.00
2022-10-07T08:09:14.256Z,11.40
2022-10-07T08:11:47.217Z,11.83
2022-10-07T08:14:17.410Z,12.97
2022-10-07T08:16:48.681Z,12.67
2022-10-07T08:19:19.456Z,13.10
2022-10-07T08:21:48.109Z,12.37
2022-10-07T08:24:17.376Z,12.87
2022-10-07T08:26:47.436Z,12.27
2022-10-07T08:29:17.209Z,13.63
2022-10-07T08:31:45.826Z,11.90
2022-10-07T08:34:14.532Z,12.63
2022-10-07T08:36:47.445Z,11.53
2022-10-07T08:39:18.837Z,12.07
2022-10-07T08:41:57.419Z,13.27
2022-10-07T08:44:29.986Z,12.60
2022-10-07T08:47:06.375Z,14.00
2022-10-07T08:49:41.302Z,12.77
2022-10-07T08:52:35.776Z,11.47
2022-10-07T08:55:05.357Z,11.33
2022-10-07T08:57:51.632Z,11.23
2022-10-07T09:00:22.764Z,13.13
2022-10-07T09:03:07.646Z,12.57
2022-10-07T09:05:41.762Z,11.73
2022-10-07T09:08:21.142Z,12.00
2022-10-07T09:10:53.526Z,13.00
2022-10-07T09:13:26.259Z,12.93
2022-10-07T09:16:02.362Z,12.87
2022-10-07T09:18:36.566Z,11.53
2022-10-07T09:21:08.112Z,13.67
2022-10-07T09:23:39.713Z,12.53
2022-10-07T09:26:12.267Z,11.60
2022-10-07T09:28:41.739Z,12.93
2022-10-07T09:31:16.225Z,12.97
2022-10-07T09:33:46.929Z,14.80
2022-10-07T09:36:18.314Z,14.67
2022-10-07T09:38:52.476Z,13.53
2022-10-07T09:41:27.846Z,16.23
2022-10-07T09:44:02.949Z,15.83
2022-10-07T09:46:44.441Z,17.33
2022-10-07T09:49:31.667Z,14.60
2022-10-07T09:52:02.307Z,14.83
2022-10-07T09:54:34.749Z,16.83
2022-10-07T09:57:06.030Z,14.77
2022-10-07T09:59:36.036Z,14.80
2022-10-07T10:02:21.387Z,15.30
2022-10-07T10:04:53.057Z,15.47
2022-10-07T10:07:26.797Z,16.00
2022-10-07T10:10:03.496Z,14.53
2022-10-07T10:12:39.436Z,15.80
2022-10-07T10:15:26.734Z,15.17
2022-10-07T10:17:57.133Z,15.77
2022-10-07T10:20:39.656Z,15.70
2022-10-07T10:23:28.236Z,14.53
2022-10-07T10:26:32.748Z,15.30
2022-10-07T10:29:15.332Z,14.83
2022-10-07T10:32:21.381Z,14.70
2022-10-07T10:35:00.530Z,16.00
2022-10-07T10:37:48.035Z,16.83
2022-10-07T10:40:23.963Z,16.23
2022-10-07T10:43:00.237Z,14.87
2022-10-07T10:45:36.895Z,15.17
2022-10-07T10:48:22.112Z,16.10
2022-10-07T10:50:56.443Z,14.63
2022-10-07T10:53:36.254Z,14.67
2022-10-07T10:56:17.355Z,15.70
2022-10-07T10:58:59.273Z,15.53
2022-10-07T11:01:36.625Z,16.53
2022-10-07T11:04:33.822Z,14.60
2022-10-07T11:07:07.164Z,14.67
2022-10-07T11:09:42.291Z,15.27
2022-10-07T11:12:23.039Z,14.53
2022-10-07T11:14:57.982Z,15.43
2022-10-07T11:17:31.809Z,17.63
2022-10-07T11:20:13.906Z,17.23
2022-10-07T11:22:48.133Z,16.70
2022-10-07T11:25:26.595Z,17.00
2022-10-07T11:28:01.017Z,16.13
2022-10-07T11:30:40.858Z,19.23
2022-10-07T11:33:13.088Z,16.10
2022-10-07T11:35:50.050Z,15.90
2022-10-07T11:38:21.657Z,16.67
2022-10-07T11:40:52.499Z,16.87
2022-10-07T11:43:27.607Z,18.03
2022-10-07T11:46:01.989Z,16.23
2022-10-07T11:48:39.010Z,18.70
2022-10-07T11:51:10.602Z,15.60
2022-10-07T11:53:41.320Z,17.13
2022-10-07T11:56:20.471Z,18.63
2022-10-07T11:58:58.951Z,16.00
2022-10-07T12:01:53.624Z,17.70
2022-10-07T12:04:36.709Z,17.63
2022-10-07T12:07:41.012Z,16.10
2022-10-07T12:10:23.478Z,16.33
2022-10-07T12:12:54.986Z,17.83
2022-10-07T12:15:30.008Z,18.10
2022-10-07T12:18:28.518Z,16.67
2022-10-07T12:21:05.705Z,16.03
2022-10-07T12:23:45.608Z,17.23
2022-10-07T12:26:50.379Z,15.83
2022-10-07T12:29:34.853Z,18.93
2022-10-07T12:32:03.954Z,17.00
2022-10-07T12:34:43.449Z,17.43
2022-10-07T12:37:37.864Z,17.87
2022-10-07T12:40:19.319Z,16.53
2022-10-07T12:42:54.790Z,16.83
2022-10-07T12:45:27.046Z,18.73
2022-10-07T12:47:59.392Z,17.37
2022-10-07T12:50:33.559Z,16.30
2022-10-07T12:53:04.067Z,16.50
2022-10-07T12:55:37.058Z,17.77
2022-10-07T12:58:48.322Z,17.83
2022-10-07T13:01:30.586Z,18.27
2022-10-07T13:04:22.255Z,16.27
2022-10-07T13:07:33.804Z,16.87
2022-10-07T13:10:36.958Z,17.17
2022-10-07T13:13:08.709Z,16.80
2022-10-07T13:15:45.075Z,19.10
2022-10-07T13:18:20.380Z,19.43
2022-10-07T13:21:02.946Z,17.27
2022-10-07T13:23:34.176Z,19.07
2022-10-07T13:26:03.781Z,18.03
2022-10-07T13:28:39.241Z,18.87
2022-10-07T13:31:17.892Z,17.80
2022-10-07T13:33:46.528Z,18.67
2022-10-07T13:36:18.478Z,17.50
2022-10-07T13:38:50.415Z,17.03
2022-10-07T13:41:27.424Z,17.83
2022-10-07T13:44:00.455Z,17.77
2022-10-07T13:46:31.314Z,20.03
2022-10-07T13:49:00.597Z,17.43
2022-10-07T13:51:33.062Z,19.50
2022-10-07T13:54:05.544Z,19.30
2022-10-07T13:56:39.247Z,18.13
2022-10-07T13:59:13.098Z,17.90
2022-10-07T14:01:42.091Z,17.60
2022-10-07T14:04:19.947Z,17.90
2022-10-07T14:06:56.172Z,18.57
2022-10-07T14:09:36.731Z,19.40
2022-10-07T14:12:08.441Z,16.97
2022-10-07T14:14:40.161Z,17.27
2022-10-07T14:17:11.737Z,17.57
2022-10-07T14:19:41.036Z,17.30
2022-10-07T14:22:19.984Z,17.37
2022-10-07T14:25:01.637Z,17.47
2022-10-07T14:27:55.273Z,18.33
2022-10-07T14:30:49.894Z,18.63
2022-10-07T14:33:45.598Z,18.47
2022-10-07T14:36:17.025Z,16.40
2022-10-07T14:38:47.367Z,17.33
2022-10-07T14:41:19.591Z,16.53
2022-10-07T14:43:51.832Z,17.27
2022-10-07T14:46:22.126Z,17.33
2022-10-07T14:48:51.924Z,17.03
2022-10-07T14:51:23.409Z,19.40
2022-10-07T14:53:55.352Z,19.43
2022-10-07T14:56:29.297Z,17.43
2022-10-07T14:58:58.035Z,17.33
2022-10-07T15:01:28.458Z,17.97
2022-10-07T15:03:57.528Z,17.63
2022-10-07T15:06:26.708Z,18.53
2022-10-07T15:08:55.304Z,16.97
2022-10-07T15:11:29.232Z,17.37
2022-10-07T15:13:58.034Z,17.43
2022-10-07T15:16:28.973Z,17.83
2022-10-07T15:18:57.660Z,17.67
2022-10-07T15:21:26.380Z,16.77
2022-10-07T15:23:56.135Z,16.57
2022-10-07T15:26:25.831Z,17.47
2022-10-07T15:28:57.815Z,15.63
2022-10-07T15:31:29.187Z,16.50
2022-10-07T15:33:58.714Z,17.43
2022-10-07T15:36:29.271Z,18.23
2022-10-07T15:39:02.282Z,17.07
2022-10-07T15:41:36.232Z,17.20
2022-10-07T15:44:08.519Z,16.80
2022-10-07T15:46:37.346Z,18.40
2022-10-07T15:49:07.587Z,16.03
2022-10-07T15:51:36.697Z,15.80
2022-10-07T15:54:06.639Z,16.83
2022-10-07T15:56:35.788Z,15.63
2022-10-07T15:59:05.851Z,15.93
2022-10-07T16:01:34.578Z,17.47
2022-10-07T16:04:05.406Z,15.00
2022-10-07T16:06:35.575Z,18.33
2022-10-07T16:09:05.232Z,15.53
2022-10-07T16:11:35.363Z,16.27
2022-10-07T16:14:06.005Z,15.77
2022-10-07T16:16:34.613Z,17.33
2022-10-07T16:19:03.825Z,16.23
2022-10-07T16:21:34.026Z,17.53
2022-10-07T16:24:05.046Z,17.03
2022-10-07T16:26:35.840Z,15.87
2022-10-07T16:29:25.431Z,16.77
2022-10-07T16:31:58.832Z,15.33
2022-10-07T16:34:29.047Z,15.83
2022-10-07T16:36:58.866Z,15.87
2022-10-07T16:39:27.461Z,17.50
2022-10-07T16:41:56.823Z,15.87
2022-10-07T16:44:26.938Z,16.40
2022-10-07T16:46:57.152Z,16.03
2022-10-07T16:49:27.666Z,15.60
2022-10-07T16:51:56.918Z,15.53
2022-10-07T16:54:25.585Z,15.50
2022-10-07T16:56:54.354Z,14.90
2022-10-07T16:59:25.106Z,16.37
2022-10-07T17:01:57.309Z,14.23
2022-10-07T17:04:26.390Z,16.57
2022-10-07T17:06:55.187Z,15.43
2022-10-07T17:09:25.319Z,15.63
2022-10-07T17:11:53.930Z,15.43
2022-10-07T17:14:23.786Z,15.23
2022-10-07T17:16:58.035Z,15.33
2022-10-07T17:19:28.386Z,14.80
2022-10-07T17:21:58.600Z,14.83
2022-10-07T17:24:27.215Z,14.77
2022-10-07T17:26:56.469Z,14.67
2022-10-07T17:29:26.315Z,15.23
2022-10-07T17:31:56.488Z,14.23
2022-10-07T17:34:25.166Z,14.30
2022-10-07T17:36:54.169Z,15.30
2022-10-07T17:39:23.060Z,14.33
2022-10-07T17:41:51.742Z,14.27
2022-10-07T17:44:21.780Z,14.23
2022-10-07T17:46:50.494Z,13.67
2022-10-07T17:49:20.861Z,15.77
2022-10-07T17:51:49.569Z,14.43
2022-10-07T17:54:18.588Z,13.57
2022-10-07T17:56:47.757Z,13.90
2022-10-07T17:59:16.830Z,14.00
2022-10-07T18:01:45.695Z,14.43
2022-10-07T18:04:20.007Z,14.10
2022-10-07T18:06:54.028Z,13.33
2022-10-07T18:09:24.239Z,14.83
2022-10-07T18:12:10.529Z,13.80
2022-10-07T18:14:56.648Z,15.13
2022-10-07T18:17:25.288Z,13.80
2022-10-07T18:19:53.821Z,13.33
2022-10-07T18:22:24.358Z,14.80
2022-10-07T18:24:57.067Z,13.17
2022-10-07T18:27:27.204Z,16.47
2022-10-07T18:29:56.439Z,14.23
2022-10-07T18:32:25.624Z,13.83
2022-10-07T18:34:54.364Z,14.47
2022-10-07T18:37:24.671Z,16.65
2022-10-07T18:39:53.322Z,15.37
2022-10-07T18:42:22.070Z,13.23
2022-10-07T18:44:52.314Z,15.53
2022-10-07T18:47:21.239Z,14.87
2022-10-07T18:49:51.710Z,13.10
2022-10-07T18:52:20.285Z,13.50
2022-10-07T18:54:50.388Z,13.50
2022-10-07T18:57:19.919Z,14.07
2022-10-07T18:59:48.526Z,14.50
2022-10-07T19:02:17.347Z,12.67
2022-10-07T19:04:45.944Z,13.40
2022-10-07T19:07:14.566Z,13.07
2022-10-07T19:09:43.161Z,13.90
2022-10-07T19:12:27.058Z,11.80
2022-10-07T19:14:55.738Z,12.17
2022-10-07T19:17:24.554Z,12.23
2022-10-07T19:19:53.196Z,13.03
2022-10-07T19:22:22.187Z,12.67
2022-10-07T19:25:08.309Z,14.10
2022-10-07T19:27:38.262Z,12.50
2022-10-07T19:30:08.246Z,13.50
2022-10-07T19:32:36.808Z,12.70
2022-10-07T19:35:06.256Z,10.70
2022-10-07T19:37:34.981Z,12.93
2022-10-07T19:40:03.616Z,13.30
2022-10-07T19:42:32.531Z,11.83
2022-10-07T19:45:03.095Z,13.70
2022-10-07T19:47:35.294Z,13.50
2022-10-07T19:50:04.042Z,13.80
2022-10-07T19:52:32.730Z,12.10
2022-10-07T19:55:04.183Z,12.33
2022-10-07T19:57:32.846Z,11.47
2022-10-07T20:00:02.995Z,12.27
2022-10-07T20:02:31.700Z,11.87
2022-10-07T20:05:00.567Z,12.67
2022-10-07T20:07:29.139Z,11.80
2022-10-07T20:09:58.883Z,12.37
2022-10-07T20:12:27.501Z,13.03
2022-10-07T20:14:56.102Z,12.07
2022-10-07T20:17:26.124Z,14.57
2022-10-07T20:19:56.724Z,14.43
2022-10-07T20:22:25.342Z,11.63
2022-10-07T20:24:53.944Z,11.43
2022-10-07T20:27:22.744Z,11.80
2022-10-07T20:30:02.469Z,12.30
2022-10-07T20:32:34.048Z,12.00
2022-10-07T20:35:05.314Z,12.07
2022-10-07T20:37:34.058Z,12.37
2022-10-07T20:40:40.664Z,11.63
2022-10-07T20:43:09.442Z,11.40
2022-10-07T20:45:56.425Z,12.17
2022-10-07T20:48:28.938Z,12.33
2022-10-07T20:50:57.578Z,11.90
2022-10-07T20:53:26.384Z,11.57
2022-10-07T20:55:55.020Z,12.70
2022-10-07T20:58:23.768Z,11.40
2022-10-07T21:00:52.365Z,12.60
2022-10-07T21:03:22.849Z,15.50
2022-10-07T21:05:59.191Z,11.90
2022-10-07T21:08:27.832Z,12.23
2022-10-07T21:11:02.116Z,13.40
2022-10-07T21:13:31.877Z,12.47
2022-10-07T21:16:03.978Z,11.67
2022-10-07T21:18:33.374Z,12.43
2022-10-07T21:21:03.350Z,12.57
2022-10-07T21:23:32.070Z,11.33
2022-10-07T21:26:02.563Z,12.10
2022-10-07T21:28:33.840Z,11.80
2022-10-07T21:31:03.366Z,11.63
2022-10-07T21:33:33.297Z,11.77
2022-10-07T21:36:05.105Z,11.40
2022-10-07T21:38:34.064Z,14.87
2022-10-07T21:41:12.107Z,12.20
2022-10-07T21:43:41.366Z,13.00
2022-10-07T21:46:10.500Z,10.83
2022-10-07T21:48:39.353Z,11.17
2022-10-07T21:51:10.015Z,11.20
2022-10-07T21:53:38.695Z,11.73
2022-10-07T21:56:09.568Z,10.77
2022-10-07T21:58:38.458Z,11.50
2022-10-07T22:01:09.264Z,12.20
2022-10-07T22:03:37.855Z,12.10
2022-10-07T22:06:10.038Z,12.57
2022-10-07T22:08:38.557Z,12.57
2022-10-07T22:11:09.973Z,11.17
2022-10-07T22:13:40.275Z,12.03
2022-10-07T22:16:14.654Z,10.80
2022-10-07T22:18:46.468Z,10.90
2022-10-07T22:21:19.469Z,11.00
2022-10-07T22:23:50.906Z,11.77
2022-10-07T22:26:20.797Z,10.93
2022-10-07T22:28:49.714Z,12.30
2022-10-07T22:31:18.678Z,11.90
2022-10-07T22:33:52.952Z,11.97
2022-10-07T22:36:22.459Z,11.83
2022-10-07T22:38:51.703Z,12.33
2022-10-07T22:41:20.824Z,12.03
2022-10-07T22:43:50.006Z,13.00
2022-10-07T22:46:21.173Z,11.13
2022-10-07T22:48:51.706Z,12.20
2022-10-07T22:51:21.934Z,12.37
2022-10-07T22:53:54.678Z,12.33
2022-10-07T22:56:24.909Z,12.53
2022-10-07T22:58:58.019Z,11.80
2022-10-07T23:01:28.581Z,11.10
2022-10-07T23:03:58.799Z,13.70
2022-10-07T23:06:28.923Z,11.60
2022-10-07T23:08:57.461Z,13.30
2022-10-07T23:11:27.764Z,12.10
2022-10-07T23:13:56.498Z,11.93
2022-10-07T23:16:29.432Z,11.53
2022-10-07T23:19:00.227Z,13.50
2022-10-07T23:21:34.938Z,11.10
2022-10-07T23:24:07.649Z,11.67
2022-10-07T23:26:37.654Z,11.47
2022-10-07T23:29:07.609Z,11.20
2022-10-07T23:31:36.738Z,13.33
2022-10-07T23:34:06.626Z,11.40
2022-10-07T23:36:36.865Z,10.43
2022-10-07T23:39:05.520Z,11.57
2022-10-07T23:41:34.395Z,11.33
2022-10-07T23:44:04.148Z,12.70
2022-10-07T23:46:35.043Z,11.70
2022-10-07T23:49:04.312Z,12.87
2022-10-07T23:51:33.543Z,13.80
2022-10-07T23:54:04.965Z,10.60
2022-10-07T23:56:34.090Z,11.70
2022-10-07T23:59:05.573Z,11.60
